Aviation Digital Data Service (ADDS)

Output produced by TAFs form (2033 UTC 22 February 2018)
found at http://www.aviationweather.gov/adds/tafs/
 
KSAV 221953Z 13008KT 10SM SCT047 28/16 A3041 RMK AO2 SLP295 T02780156
KSAV 221720Z 2218/2318 16006KT P6SM FEW040 
     FM230900 00000KT 4SM BR SCT010 BKN030 
     FM231500 12005KT P6SM FEW035